Saint Helena Island, United Kingdom
Current Conditions -  °F | °C
As of 6:50 PM on Thursday 18 Dec 2014 (Local Time) from FHAW Reporting Station
Few Clouds Few Clouds  
Wind Chill: 79°   Ceiling: Unl
Heat Index: 81°   Visibility: 6mi
Dew Point: 66°   Wind: 17mph
Humidity: 65%   Direction: 150°SSE
Pressure: 29.91"   Gusts: NA
Location:  15.93°S, 5.07°W
Report Text: FHAW 181750Z 15015KT 9999 FEW027 26/19 Q1013 BLU NOSIG
Loading
Personal Weather Stations






























Interactive Weather Map New forecast layout! Learn more

10-Day Weather Forecast

Advertisements
Track Severe Weather on mobile